Time;durP1;ratioP1;P1;durP2;ratioP2;P2;SDS_P1;SDS_P2;PMS_P1;PMS_P2;Temp;Humidity;BMP_temperature;BMP_pressure;BME280_temperature;BME280_humidity;BME280_pressure;Samples;Min_cycle;Max_cycle;Signal;HPM_P1;HPM_P2
2022/07/27 00:00:14;;;;;;;341.67;182.93;;;;;;;;;;5004643;28;20221;-68
2022/07/27 00:02:40;;;;;;;275.67;156.15;;;;;;;;;;5006642;28;20237;-68
2022/07/27 00:05:07;;;;;;;300.20;166.48;;;;;;;;;;5006829;28;20236;-67
2022/07/27 00:07:32;;;;;;;307.40;169.15;;;;;;;;;;5000001;28;20181;-68
2022/07/27 00:09:58;;;;;;;326.88;179.20;;;;;;;;;;5001887;28;20217;-68
2022/07/27 00:12:24;;;;;;;321.65;170.57;;;;;;;;;;5004468;28;20290;-68
2022/07/27 00:14:50;;;;;;;329.38;182.55;;;;;;;;;;5003297;28;20268;-68
2022/07/27 00:17:22;;;;;;;330.90;178.75;;;;;;;;;;4998450;28;20217;-67
2022/07/27 00:19:47;;;;;;;285.23;160.77;;;;;;;;;;5004952;28;20263;-67
2022/07/27 00:22:14;;;;;;;330.38;178.43;;;;;;;;;;5004219;28;20663;-67
2022/07/27 00:24:40;;;;;;;290.08;158.27;;;;;;;;;;5001856;28;20217;-67
2022/07/27 00:27:07;;;;;;;267.73;149.40;;;;;;;;;;4996682;28;20221;-68
2022/07/27 00:29:32;;;;;;;302.67;169.00;;;;;;;;;;5005661;28;20267;-68
2022/07/27 00:31:58;;;;;;;320.23;176.52;;;;;;;;;;5001310;28;20213;-67
2022/07/27 00:34:24;;;;;;;309.38;165.98;;;;;;;;;;5003134;28;20246;-67
2022/07/27 00:36:50;;;;;;;276.85;156.55;;;;;;;;;;5006524;28;20220;-67
2022/07/27 00:39:16;;;;;;;294.77;160.80;;;;;;;;;;5006672;28;20221;-67
2022/07/27 00:41:42;;;;;;;291.25;162.73;;;;;;;;;;5008264;28;20233;-67
2022/07/27 00:44:09;;;;;;;424.83;228.02;;;;;;;;;;5005792;28;20224;-67
2022/07/27 00:46:35;;;;;;;365.43;189.57;;;;;;;;;;5005818;28;20185;-68
2022/07/27 00:49:01;;;;;;;373.83;191.07;;;;;;;;;;5000928;28;20670;-68
2022/07/27 00:51:27;;;;;;;339.70;176.37;;;;;;;;;;4999638;28;20221;-68
2022/07/27 00:53:54;;;;;;;336.48;173.07;;;;;;;;;;5001907;28;20224;-68
2022/07/27 00:56:21;;;;;;;325.92;164.88;;;;;;;;;;5001469;28;20225;-67
2022/07/27 00:58:48;;;;;;;332.53;170.33;;;;;;;;;;5009294;28;20239;-67
2022/07/27 01:01:15;;;;;;;354.83;182.20;;;;;;;;;;4999488;28;20217;-68
2022/07/27 01:03:41;;;;;;;336.93;175.10;;;;;;;;;;5001165;28;20232;-68
2022/07/27 01:06:07;;;;;;;367.02;188.88;;;;;;;;;;4996383;28;20216;-68
2022/07/27 01:08:33;;;;;;;292.37;153.63;;;;;;;;;;5008341;28;20303;-67
2022/07/27 01:10:59;;;;;;;328.42;173.75;;;;;;;;;;5006026;28;20212;-67
2022/07/27 01:13:25;;;;;;;373.73;189.63;;;;;;;;;;5006408;28;20528;-67
2022/07/27 01:15:52;;;;;;;382.73;193.05;;;;;;;;;;4996991;28;20217;-67
2022/07/27 01:18:38;;;;;;;351.33;178.07;;;;;;;;;;5007720;28;20224;-67
2022/07/27 01:21:05;;;;;;;315.97;161.90;;;;;;;;;;5009112;28;20540;-67
2022/07/27 01:23:31;;;;;;;312.52;161.13;;;;;;;;;;5003306;28;20251;-67
2022/07/27 01:25:58;;;;;;;360.65;184.63;;;;;;;;;;5003822;28;20201;-67
2022/07/27 01:28:24;;;;;;;341.83;171.00;;;;;;;;;;5000426;28;20192;-67
2022/07/27 01:30:49;;;;;;;336.13;169.33;;;;;;;;;;5006238;28;20271;-67
2022/07/27 01:33:15;;;;;;;403.00;201.80;;;;;;;;;;4998163;28;20216;-68
2022/07/27 01:35:41;;;;;;;362.27;186.20;;;;;;;;;;5020949;28;20228;-68
2022/07/27 01:38:09;;;;;;;342.93;172.87;;;;;;;;;;5005833;28;20221;-67
2022/07/27 01:40:36;;;;;;;316.92;163.73;;;;;;;;;;5002933;28;20197;-67
2022/07/27 01:43:03;;;;;;;358.30;183.87;;;;;;;;;;5004635;28;20235;-67
2022/07/27 01:45:30;;;;;;;338.93;172.37;;;;;;;;;;5003666;28;20985;-67
2022/07/27 01:47:55;;;;;;;354.67;180.37;;;;;;;;;;5004449;28;20240;-68
2022/07/27 01:50:21;;;;;;;372.67;183.73;;;;;;;;;;5006791;28;20251;-68
2022/07/27 01:52:47;;;;;;;333.47;169.73;;;;;;;;;;5007752;28;20543;-68
2022/07/27 01:55:13;;;;;;;357.08;181.27;;;;;;;;;;5000836;28;20572;-67
2022/07/27 01:57:39;;;;;;;303.57;155.50;;;;;;;;;;5004340;28;20308;-67
2022/07/27 02:00:07;;;;;;;345.20;174.37;;;;;;;;;;5002411;28;20231;-68
2022/07/27 02:02:33;;;;;;;322.10;164.18;;;;;;;;;;5000726;28;20290;-68
2022/07/27 02:04:59;;;;;;;316.77;167.23;;;;;;;;;;5002955;28;20263;-67
2022/07/27 02:07:25;;;;;;;320.52;163.80;;;;;;;;;;5004935;28;20669;-67
2022/07/27 02:09:51;;;;;;;380.20;188.47;;;;;;;;;;4999783;28;20279;-68
2022/07/27 02:12:35;;;;;;;331.33;169.52;;;;;;;;;;4999322;28;20220;-68
2022/07/27 02:15:12;;;;;;;328.23;168.07;;;;;;;;;;5004965;28;20221;-67
2022/07/27 02:17:39;;;;;;;325.73;164.47;;;;;;;;;;4997677;28;20229;-68
2022/07/27 02:20:05;;;;;;;335.40;172.83;;;;;;;;;;4997264;28;20189;-67
2022/07/27 02:22:31;;;;;;;312.70;159.15;;;;;;;;;;5002474;28;20202;-67
2022/07/27 02:24:57;;;;;;;344.08;177.98;;;;;;;;;;5005702;28;20863;-68
2022/07/27 02:27:23;;;;;;;321.03;162.80;;;;;;;;;;5005399;28;20794;-68
2022/07/27 02:29:49;;;;;;;320.03;162.57;;;;;;;;;;5006224;28;20224;-68
2022/07/27 02:32:15;;;;;;;412.93;191.23;;;;;;;;;;4995109;28;20240;-68
2022/07/27 02:34:41;;;;;;;358.43;168.60;;;;;;;;;;5018763;28;20193;-67
2022/07/27 02:37:08;;;;;;;326.10;155.60;;;;;;;;;;5000915;28;20228;-67
2022/07/27 02:39:34;;;;;;;370.23;176.10;;;;;;;;;;4999631;28;20283;-67
2022/07/27 02:42:00;;;;;;;355.90;170.83;;;;;;;;;;5006823;28;20231;-67
2022/07/27 02:44:26;;;;;;;387.77;182.47;;;;;;;;;;4998994;28;20225;-68
2022/07/27 02:46:52;;;;;;;373.27;176.60;;;;;;;;;;5005650;28;20193;-67
2022/07/27 02:49:18;;;;;;;361.10;172.10;;;;;;;;;;5006198;28;20231;-68
2022/07/27 02:51:44;;;;;;;355.80;175.10;;;;;;;;;;4996757;28;20239;-68
2022/07/27 02:54:10;;;;;;;314.00;154.47;;;;;;;;;;5003752;28;20827;-68
2022/07/27 02:56:36;;;;;;;342.97;165.73;;;;;;;;;;4996035;28;20217;-68
2022/07/27 02:59:01;;;;;;;342.23;168.37;;;;;;;;;;5006529;28;20200;-67
2022/07/27 03:01:27;;;;;;;379.87;181.23;;;;;;;;;;4997695;28;20201;-67
2022/07/27 03:03:53;;;;;;;339.37;166.73;;;;;;;;;;5003173;28;20224;-67
2022/07/27 03:06:19;;;;;;;379.57;184.80;;;;;;;;;;5004199;28;20809;-68
2022/07/27 03:08:45;;;;;;;322.60;161.27;;;;;;;;;;5008378;28;20220;-68
2022/07/27 03:11:11;;;;;;;358.53;177.00;;;;;;;;;;5016309;28;20225;-68
2022/07/27 03:13:37;;;;;;;333.93;163.80;;;;;;;;;;5017740;28;20252;-67
2022/07/27 03:16:03;;;;;;;416.70;204.10;;;;;;;;;;5001303;28;20271;-67
2022/07/27 03:18:29;;;;;;;353.43;174.47;;;;;;;;;;4999090;28;20342;-67
2022/07/27 03:20:55;;;;;;;372.50;183.10;;;;;;;;;;5014949;28;20225;-67
2022/07/27 03:23:21;;;;;;;401.43;193.40;;;;;;;;;;4995842;28;20240;-68
2022/07/27 03:25:47;;;;;;;370.57;177.90;;;;;;;;;;5004126;28;20204;-68
2022/07/27 03:28:13;;;;;;;329.53;161.17;;;;;;;;;;5004318;28;20567;-68
2022/07/27 03:30:39;;;;;;;321.90;154.47;;;;;;;;;;5003511;28;20217;-68
2022/07/27 03:33:05;;;;;;;358.87;173.07;;;;;;;;;;5002689;28;20231;-67
2022/07/27 03:35:30;;;;;;;365.33;176.53;;;;;;;;;;5004567;28;20221;-68
2022/07/27 03:37:56;;;;;;;342.33;169.93;;;;;;;;;;5005254;28;20180;-68
2022/07/27 03:40:22;;;;;;;363.00;175.87;;;;;;;;;;5001028;28;20189;-68
2022/07/27 03:42:48;;;;;;;350.53;175.10;;;;;;;;;;5005309;28;20225;-68
2022/07/27 03:45:14;;;;;;;371.93;181.00;;;;;;;;;;4999275;28;20220;-67
2022/07/27 03:47:40;;;;;;;323.50;156.57;;;;;;;;;;4995410;28;20233;-67
2022/07/27 03:50:06;;;;;;;324.53;159.70;;;;;;;;;;5001907;28;20185;-67
2022/07/27 03:52:32;;;;;;;382.13;180.90;;;;;;;;;;4999194;28;20212;-68
2022/07/27 03:54:58;;;;;;;337.30;164.97;;;;;;;;;;5004334;28;20224;-67
2022/07/27 03:57:24;;;;;;;363.90;171.97;;;;;;;;;;5005445;28;20235;-68
2022/07/27 03:59:50;;;;;;;402.07;194.30;;;;;;;;;;5002573;28;20274;-68
2022/07/27 04:02:16;;;;;;;321.60;153.97;;;;;;;;;;5010180;28;20276;-67
2022/07/27 04:04:42;;;;;;;307.40;146.97;;;;;;;;;;5009575;28;20655;-68
2022/07/27 04:07:09;;;;;;;314.83;153.40;;;;;;;;;;5010184;28;20228;-67
2022/07/27 04:09:36;;;;;;;330.70;159.00;;;;;;;;;;4999147;28;20701;-67
2022/07/27 04:12:02;;;;;;;325.13;155.43;;;;;;;;;;5009363;28;20250;-67
2022/07/27 04:14:28;;;;;;;354.00;171.07;;;;;;;;;;5009129;28;20225;-68
2022/07/27 04:16:54;;;;;;;305.33;153.80;;;;;;;;;;5007396;28;20192;-67
2022/07/27 04:19:19;;;;;;;327.50;163.63;;;;;;;;;;5006554;28;20650;-68
2022/07/27 04:21:45;;;;;;;316.27;155.27;;;;;;;;;;5009971;28;20755;-67
2022/07/27 04:24:11;;;;;;;329.17;164.53;;;;;;;;;;5002261;28;20231;-68
2022/07/27 04:26:37;;;;;;;302.30;151.80;;;;;;;;;;5004763;28;20737;-68
2022/07/27 04:29:03;;;;;;;297.33;151.60;;;;;;;;;;5006409;28;20174;-68
2022/07/27 04:31:30;;;;;;;326.37;167.70;;;;;;;;;;5005154;28;20201;-69
2022/07/27 04:33:56;;;;;;;310.63;153.00;;;;;;;;;;5010358;28;20601;-68
2022/07/27 04:36:22;;;;;;;293.87;148.10;;;;;;;;;;5005245;28;20227;-68
2022/07/27 04:38:48;;;;;;;367.60;179.50;;;;;;;;;;5007183;28;20220;-68
2022/07/27 04:41:13;;;;;;;353.00;168.73;;;;;;;;;;5002656;28;20229;-68
2022/07/27 04:43:39;;;;;;;319.77;157.33;;;;;;;;;;5004834;28;20692;-68
2022/07/27 04:46:06;;;;;;;288.43;144.20;;;;;;;;;;4998896;28;20231;-68
2022/07/27 04:48:35;;;;;;;310.13;152.13;;;;;;;;;;5006606;28;20283;-68
2022/07/27 04:51:01;;;;;;;324.40;162.33;;;;;;;;;;5002694;28;20248;-68
2022/07/27 04:53:27;;;;;;;358.40;177.47;;;;;;;;;;4999155;28;20217;-68
2022/07/27 04:55:53;;;;;;;374.60;186.77;;;;;;;;;;5003778;28;20182;-67
2022/07/27 04:58:19;;;;;;;314.03;152.27;;;;;;;;;;5004918;28;20227;-67
2022/07/27 05:00:45;;;;;;;330.53;163.27;;;;;;;;;;5003385;28;20255;-68
2022/07/27 05:03:11;;;;;;;327.37;161.07;;;;;;;;;;5007147;28;20248;-68
2022/07/27 05:05:37;;;;;;;435.03;211.67;;;;;;;;;;5002499;28;20224;-68
2022/07/27 05:08:03;;;;;;;344.27;168.17;;;;;;;;;;4997867;28;20251;-67
2022/07/27 05:10:29;;;;;;;353.50;172.07;;;;;;;;;;5004858;28;21407;-68
2022/07/27 05:12:55;;;;;;;324.63;161.63;;;;;;;;;;5007079;28;20229;-68
2022/07/27 05:15:21;;;;;;;345.90;166.50;;;;;;;;;;5005143;28;20228;-68
2022/07/27 05:17:48;;;;;;;324.23;159.77;;;;;;;;;;5006167;28;20634;-68
2022/07/27 05:20:14;;;;;;;303.37;150.90;;;;;;;;;;5005179;28;20216;-67
2022/07/27 05:22:40;;;;;;;314.73;156.00;;;;;;;;;;5002626;28;20206;-64
2022/07/27 05:25:07;;;;;;;303.33;151.67;;;;;;;;;;5008708;28;20227;-64
2022/07/27 05:27:33;;;;;;;349.13;173.20;;;;;;;;;;4995707;28;20247;-64
2022/07/27 05:29:59;;;;;;;358.90;178.90;;;;;;;;;;4997760;28;20563;-64
2022/07/27 05:32:25;;;;;;;311.77;159.30;;;;;;;;;;5008646;28;20712;-64
2022/07/27 05:34:50;;;;;;;376.97;190.37;;;;;;;;;;4989808;28;20201;-64
2022/07/27 05:37:16;;;;;;;333.83;166.13;;;;;;;;;;5002190;28;20185;-64
2022/07/27 05:39:42;;;;;;;290.27;150.00;;;;;;;;;;4999567;28;20239;-64
2022/07/27 05:42:09;;;;;;;314.80;156.87;;;;;;;;;;5002475;28;20224;-64
2022/07/27 05:44:35;;;;;;;371.47;182.43;;;;;;;;;;5001521;28;20228;-64
2022/07/27 05:47:01;;;;;;;326.57;163.13;;;;;;;;;;5000417;28;20203;-63
2022/07/27 05:49:27;;;;;;;341.63;170.77;;;;;;;;;;5002349;28;20185;-64
2022/07/27 05:51:53;;;;;;;347.10;175.53;;;;;;;;;;5004987;28;20248;-64
2022/07/27 05:54:19;;;;;;;378.60;191.57;;;;;;;;;;5005884;28;20248;-65
2022/07/27 05:56:45;;;;;;;361.73;184.23;;;;;;;;;;4994504;28;20615;-64
2022/07/27 05:59:11;;;;;;;311.50;162.43;;;;;;;;;;5004378;28;20667;-65
2022/07/27 06:01:37;;;;;;;407.13;204.43;;;;;;;;;;4997201;28;20217;-64
2022/07/27 06:04:04;;;;;;;308.33;153.13;;;;;;;;;;5003461;28;20657;-64
2022/07/27 06:09:15;;;;;;;381.83;197.13;;;;;;;;;;4998675;28;20228;-64
2022/07/27 06:11:41;;;;;;;313.53;158.30;;;;;;;;;;4998405;28;20220;-68
2022/07/27 06:14:07;;;;;;;359.23;182.27;;;;;;;;;;4991629;28;20642;-66
2022/07/27 06:16:33;;;;;;;440.33;216.73;;;;;;;;;;4990877;28;20201;-70
2022/07/27 06:18:59;;;;;;;378.57;190.00;;;;;;;;;;5000903;28;20586;-65
2022/07/27 06:21:27;;;;;;;319.47;161.43;;;;;;;;;;4999900;28;20275;-67
2022/07/27 06:23:53;;;;;;;367.63;182.40;;;;;;;;;;5000573;28;20220;-67
2022/07/27 06:26:19;;;;;;;344.13;180.27;;;;;;;;;;4993752;28;20232;-67
2022/07/27 06:28:45;;;;;;;310.13;162.63;;;;;;;;;;5004689;28;20181;-67
2022/07/27 06:31:11;;;;;;;399.47;206.63;;;;;;;;;;4991682;28;20243;-67
2022/07/27 06:33:37;;;;;;;306.58;158.10;;;;;;;;;;5005328;28;20231;-66
2022/07/27 06:36:04;;;;;;;361.87;188.10;;;;;;;;;;4997973;28;20231;-66
2022/07/27 06:38:30;;;;;;;409.67;206.97;;;;;;;;;;4992634;28;20547;-68
2022/07/27 06:40:57;;;;;;;403.93;209.90;;;;;;;;;;5000884;28;20278;-71
2022/07/27 06:43:25;;;;;;;365.80;190.33;;;;;;;;;;5002521;28;20921;-67
2022/07/27 06:45:53;;;;;;;383.07;198.33;;;;;;;;;;4994433;28;20229;-67
2022/07/27 06:48:20;;;;;;;349.53;176.00;;;;;;;;;;5008059;28;20225;-64
2022/07/27 06:50:46;;;;;;;343.87;174.03;;;;;;;;;;5001392;28;20822;-65
2022/07/27 06:53:12;;;;;;;340.77;172.43;;;;;;;;;;4991790;28;20233;-65
2022/07/27 06:55:38;;;;;;;363.87;185.97;;;;;;;;;;5001346;28;20697;-66
2022/07/27 06:58:03;;;;;;;404.70;211.50;;;;;;;;;;4997261;28;20583;-65
2022/07/27 07:00:30;;;;;;;319.17;168.87;;;;;;;;;;5004988;28;20226;-65
2022/07/27 07:02:57;;;;;;;347.42;183.75;;;;;;;;;;5004427;28;20736;-65
2022/07/27 07:05:23;;;;;;;337.33;176.02;;;;;;;;;;5006904;28;20216;-65
2022/07/27 07:07:49;;;;;;;448.50;230.17;;;;;;;;;;5002636;28;20691;-65
2022/07/27 07:10:15;;;;;;;347.63;174.50;;;;;;;;;;4997259;28;20197;-66
2022/07/27 07:12:41;;;;;;;429.87;218.77;;;;;;;;;;4991366;28;20220;-65
2022/07/27 07:15:08;;;;;;;370.20;188.00;;;;;;;;;;4990898;28;20659;-65
2022/07/27 07:17:34;;;;;;;438.67;220.63;;;;;;;;;;4983399;28;20903;-65
2022/07/27 07:20:00;;;;;;;480.35;239.73;;;;;;;;;;4988858;28;20239;-65
2022/07/27 07:22:26;;;;;;;401.60;199.20;;;;;;;;;;4997752;28;20205;-65
2022/07/27 07:24:52;;;;;;;336.98;169.00;;;;;;;;;;4999523;28;20221;-64
2022/07/27 07:27:22;;;;;;;379.52;190.68;;;;;;;;;;4998178;28;20286;-65
2022/07/27 07:29:48;;;;;;;321.92;163.35;;;;;;;;;;4998635;28;20821;-65
2022/07/27 07:32:13;;;;;;;385.37;191.90;;;;;;;;;;5004051;28;20229;-65
2022/07/27 07:34:39;;;;;;;412.50;209.95;;;;;;;;;;5002436;28;20189;-66
2022/07/27 07:37:06;;;;;;;319.75;161.63;;;;;;;;;;5000615;28;20220;-65
2022/07/27 07:39:32;;;;;;;366.38;186.80;;;;;;;;;;5004625;28;20236;-65
2022/07/27 07:41:58;;;;;;;391.50;193.85;;;;;;;;;;4997910;28;20228;-64
2022/07/27 07:44:24;;;;;;;430.23;214.95;;;;;;;;;;4991025;28;20221;-66
2022/07/27 07:46:50;;;;;;;335.92;178.02;;;;;;;;;;5002497;28;20260;-65
2022/07/27 07:49:16;;;;;;;420.20;215.70;;;;;;;;;;4996497;28;20192;-65
2022/07/27 07:51:41;;;;;;;317.52;167.32;;;;;;;;;;4999213;28;20217;-65
2022/07/27 07:54:07;;;;;;;335.88;170.73;;;;;;;;;;4997657;28;20255;-65
2022/07/27 07:56:33;;;;;;;388.17;192.85;;;;;;;;;;4997274;28;20225;-64
2022/07/27 07:59:03;;;;;;;341.40;176.00;;;;;;;;;;5000003;28;20189;-65
2022/07/27 08:01:29;;;;;;;415.13;210.32;;;;;;;;;;4999962;28;20266;-65
2022/07/27 08:03:55;;;;;;;376.13;191.23;;;;;;;;;;4996578;28;20716;-67
2022/07/27 08:06:21;;;;;;;384.77;190.23;;;;;;;;;;4993122;28;20276;-63
2022/07/27 08:08:47;;;;;;;354.92;187.43;;;;;;;;;;5005623;28;20229;-65
2022/07/27 08:11:13;;;;;;;383.48;198.25;;;;;;;;;;5001909;28;20225;-66
2022/07/27 08:13:39;;;;;;;340.20;174.43;;;;;;;;;;5001886;28;20189;-65
2022/07/27 08:16:05;;;;;;;367.13;193.68;;;;;;;;;;5000069;28;20225;-67
2022/07/27 08:18:31;;;;;;;444.40;230.60;;;;;;;;;;4985939;28;20225;-65
2022/07/27 08:20:57;;;;;;;464.90;238.90;;;;;;;;;;4997703;28;20217;-66
2022/07/27 08:23:23;;;;;;;354.05;185.57;;;;;;;;;;5001261;28;20220;-65
2022/07/27 08:25:49;;;;;;;493.63;248.88;;;;;;;;;;5002036;28;20548;-65
2022/07/27 08:28:15;;;;;;;381.17;196.18;;;;;;;;;;5003257;28;20181;-65
2022/07/27 08:30:41;;;;;;;379.67;192.82;;;;;;;;;;5006310;28;20222;-65
2022/07/27 08:33:07;;;;;;;363.05;183.77;;;;;;;;;;5013950;28;20272;-65
2022/07/27 08:35:34;;;;;;;412.55;210.65;;;;;;;;;;5002600;28;20213;-64
2022/07/27 08:38:01;;;;;;;383.10;200.23;;;;;;;;;;5000595;28;20200;-65
2022/07/27 08:40:27;;;;;;;402.52;203.25;;;;;;;;;;4995464;28;20186;-65
2022/07/27 08:42:53;;;;;;;400.88;207.65;;;;;;;;;;4999965;28;20224;-65
2022/07/27 08:45:20;;;;;;;388.00;194.10;;;;;;;;;;5001269;28;20220;-65
2022/07/27 08:47:46;;;;;;;390.52;197.18;;;;;;;;;;5001375;28;20220;-65
2022/07/27 08:50:22;;;;;;;338.02;170.20;;;;;;;;;;5009216;28;20217;-66
2022/07/27 08:52:56;;;;;;;361.52;184.98;;;;;;;;;;5002857;28;20197;-65
2022/07/27 08:55:23;;;;;;;399.65;199.48;;;;;;;;;;5001551;28;20175;-65
2022/07/27 08:57:49;;;;;;;434.65;221.50;;;;;;;;;;5004769;28;20212;-65
2022/07/27 09:00:15;;;;;;;346.23;177.15;;;;;;;;;;5001314;28;20563;-65
2022/07/27 09:02:41;;;;;;;360.17;188.50;;;;;;;;;;5002051;28;20268;-66
2022/07/27 09:05:08;;;;;;;383.42;202.13;;;;;;;;;;5002018;28;20173;-67
2022/07/27 09:07:34;;;;;;;390.20;200.35;;;;;;;;;;5002768;28;20259;-66
2022/07/27 09:10:00;;;;;;;382.63;202.73;;;;;;;;;;5007682;28;20212;-65
2022/07/27 09:12:27;;;;;;;360.08;183.93;;;;;;;;;;5001789;28;20446;-66
2022/07/27 09:15:03;;;;;;;399.88;210.40;;;;;;;;;;5010380;28;20973;-66
2022/07/27 09:17:29;;;;;;;423.17;220.18;;;;;;;;;;4991805;28;20224;-65
2022/07/27 09:19:56;;;;;;;367.55;195.90;;;;;;;;;;5005240;28;20192;-67
2022/07/27 09:22:38;;;;;;;369.27;191.32;;;;;;;;;;5010070;28;20204;-66
2022/07/27 09:25:05;;;;;;;348.98;179.93;;;;;;;;;;5001941;28;20285;-66
2022/07/27 09:27:31;;;;;;;379.63;193.35;;;;;;;;;;4992882;28;20209;-65
2022/07/27 09:30:01;;;;;;;418.77;219.50;;;;;;;;;;5003180;28;25081;-70
2022/07/27 09:32:27;;;;;;;389.33;195.35;;;;;;;;;;5007189;28;20228;-67
2022/07/27 09:34:53;;;;;;;359.95;195.18;;;;;;;;;;5018811;28;20172;-70
2022/07/27 09:37:23;;;;;;;388.48;204.85;;;;;;;;;;5012080;28;20189;-76
2022/07/27 09:39:49;;;;;;;355.15;188.65;;;;;;;;;;5006487;28;20689;-73
2022/07/27 09:42:15;;;;;;;387.10;202.93;;;;;;;;;;5006842;28;20213;-76
2022/07/27 09:44:42;;;;;;;377.92;199.63;;;;;;;;;;5001866;28;20822;-77
2022/07/27 09:47:25;;;;;;;341.67;178.63;;;;;;;;;;5005056;28;20243;-73
2022/07/27 09:49:51;;;;;;;374.98;205.52;;;;;;;;;;5003740;28;20181;-73
2022/07/27 09:52:24;;;;;;;403.00;216.30;;;;;;;;;;5002855;28;20235;-73
2022/07/27 09:54:50;;;;;;;374.60;201.77;;;;;;;;;;5003212;28;20251;-72
2022/07/27 09:57:17;;;;;;;395.42;208.52;;;;;;;;;;4998257;28;20551;-70
2022/07/27 09:59:43;;;;;;;377.05;203.98;;;;;;;;;;5003471;28;20884;-76
2022/07/27 10:02:12;;;;;;;375.13;196.82;;;;;;;;;;4997710;28;20231;-77
2022/07/27 10:04:38;;;;;;;410.83;213.10;;;;;;;;;;5003215;28;20192;-64
2022/07/27 10:07:04;;;;;;;401.25;213.52;;;;;;;;;;4990372;28;20611;-68
2022/07/27 10:09:30;;;;;;;386.52;206.25;;;;;;;;;;4999507;28;20238;-69
2022/07/27 10:11:57;;;;;;;495.23;258.33;;;;;;;;;;4997994;28;20220;-68
2022/07/27 10:14:24;;;;;;;424.67;221.90;;;;;;;;;;4995691;28;20212;-69
2022/07/27 10:16:50;;;;;;;401.17;210.57;;;;;;;;;;4989370;28;20177;-69
2022/07/27 10:19:25;;;;;;;417.15;221.45;;;;;;;;;;5001214;28;20185;-69
2022/07/27 10:21:51;;;;;;;380.13;203.43;;;;;;;;;;5003360;28;20216;-69
2022/07/27 10:24:24;;;;;;;430.38;218.18;;;;;;;;;;4999129;28;20271;-69
2022/07/27 10:26:50;;;;;;;489.83;249.65;;;;;;;;;;5003885;28;20574;-69
2022/07/27 10:29:18;;;;;;;544.55;275.63;;;;;;;;;;4994887;28;20225;-69
2022/07/27 10:31:50;;;;;;;446.42;228.40;;;;;;;;;;4996278;28;20189;-69
2022/07/27 10:34:31;;;;;;;392.67;201.25;;;;;;;;;;4994496;28;20213;-69
2022/07/27 10:37:07;;;;;;;403.40;218.23;;;;;;;;;;4998605;28;20287;-67
2022/07/27 10:39:34;;;;;;;394.23;199.90;;;;;;;;;;5004571;28;20682;-66
2022/07/27 10:42:19;;;;;;;369.33;192.88;;;;;;;;;;5000115;28;20209;-69
2022/07/27 10:44:56;;;;;;;345.38;178.93;;;;;;;;;;5012802;28;20224;-73
2022/07/27 10:47:29;;;;;;;359.95;184.90;;;;;;;;;;4995673;28;20220;-73
2022/07/27 10:50:14;;;;;;;372.55;199.45;;;;;;;;;;4998812;28;20184;-67
2022/07/27 10:52:45;;;;;;;386.83;205.50;;;;;;;;;;5004694;28;20201;-67
2022/07/27 10:55:30;;;;;;;348.48;185.93;;;;;;;;;;5006066;28;20440;-68
2022/07/27 10:57:56;;;;;;;365.00;191.30;;;;;;;;;;5003737;28;20221;-69
2022/07/27 11:00:42;;;;;;;395.40;205.80;;;;;;;;;;5001722;28;20220;-67
2022/07/27 11:03:09;;;;;;;376.80;197.00;;;;;;;;;;5002311;28;20216;-68
2022/07/27 11:05:35;;;;;;;392.65;207.02;;;;;;;;;;5010657;28;20270;-72
2022/07/27 11:08:01;;;;;;;379.08;204.45;;;;;;;;;;5007878;28;20180;-70
2022/07/27 11:10:29;;;;;;;351.77;188.75;;;;;;;;;;5010884;28;20173;-70
2022/07/27 11:12:54;;;;;;;393.35;209.68;;;;;;;;;;5009450;28;20540;-70
2022/07/27 11:15:20;;;;;;;385.33;202.38;;;;;;;;;;5007064;28;20223;-70
2022/07/27 11:17:49;;;;;;;384.77;203.30;;;;;;;;;;5001135;28;21126;-70
2022/07/27 11:20:15;;;;;;;390.02;202.57;;;;;;;;;;5004768;28;20219;-69
2022/07/27 11:22:41;;;;;;;341.17;185.13;;;;;;;;;;5014500;28;20590;-70
2022/07/27 11:25:07;;;;;;;342.10;191.30;;;;;;;;;;5010745;28;20216;-72
2022/07/27 11:27:49;;;;;;;362.23;200.40;;;;;;;;;;5007581;28;20220;-70
2022/07/27 11:30:26;;;;;;;414.38;218.13;;;;;;;;;;5005678;28;20555;-70
2022/07/27 11:32:52;;;;;;;396.00;211.52;;;;;;;;;;5005928;28;20217;-70
2022/07/27 11:35:18;;;;;;;361.10;199.18;;;;;;;;;;5004813;28;20949;-70
2022/07/27 11:37:57;;;;;;;357.02;194.45;;;;;;;;;;5004925;28;20188;-72
2022/07/27 11:40:23;;;;;;;358.48;202.15;;;;;;;;;;5008742;28;20304;-72
2022/07/27 11:42:49;;;;;;;404.33;227.07;;;;;;;;;;5003890;28;20229;-70
2022/07/27 11:45:27;;;;;;;395.75;221.00;;;;;;;;;;5000400;28;20216;-69
2022/07/27 11:47:57;;;;;;;408.80;229.23;;;;;;;;;;5014571;28;20213;-71
2022/07/27 11:50:23;;;;;;;406.98;225.25;;;;;;;;;;4992079;28;20222;-69
2022/07/27 11:52:56;;;;;;;435.45;238.68;;;;;;;;;;4997420;28;20399;-69
2022/07/27 11:55:22;;;;;;;373.35;210.52;;;;;;;;;;5006511;28;20189;-69
2022/07/27 11:57:48;;;;;;;362.30;207.00;;;;;;;;;;5002443;28;20228;-69
2022/07/27 12:00:14;;;;;;;365.50;205.70;;;;;;;;;;5008285;28;20589;-69
2022/07/27 12:02:49;;;;;;;431.10;242.65;;;;;;;;;;5005402;28;20227;-69
2022/07/27 12:05:16;;;;;;;366.52;209.40;;;;;;;;;;5008597;28;20212;-68
2022/07/27 12:07:43;;;;;;;390.70;218.98;;;;;;;;;;5003480;28;20190;-69
2022/07/27 12:10:10;;;;;;;406.38;220.30;;;;;;;;;;5001180;28;20212;-69
2022/07/27 12:12:36;;;;;;;413.23;222.55;;;;;;;;;;5015823;28;20232;-70
2022/07/27 12:15:19;;;;;;;544.53;295.38;;;;;;;;;;5016685;28;20220;-69
2022/07/27 12:17:48;;;;;;;349.63;191.82;;;;;;;;;;5012827;28;20216;-69
2022/07/27 12:20:15;;;;;;;387.07;215.43;;;;;;;;;;5001100;28;20220;-68
2022/07/27 12:22:45;;;;;;;432.30;243.00;;;;;;;;;;5005920;28;20801;-69
2022/07/27 12:25:32;;;;;;;398.13;226.30;;;;;;;;;;5010423;28;25089;-69
2022/07/27 12:28:01;;;;;;;393.58;223.55;;;;;;;;;;5009481;28;20210;-69
2022/07/27 12:30:33;;;;;;;380.67;220.15;;;;;;;;;;5001993;28;20222;-61
2022/07/27 12:32:59;;;;;;;434.60;253.88;;;;;;;;;;5002761;28;20833;-63
2022/07/27 12:35:27;;;;;;;362.40;212.77;;;;;;;;;;5005011;28;20225;-69
2022/07/27 12:38:12;;;;;;;396.75;230.25;;;;;;;;;;5002738;28;20746;-67
2022/07/27 12:41:04;;;;;;;364.55;214.65;;;;;;;;;;5002518;28;20208;-69
2022/07/27 12:43:30;;;;;;;432.67;249.63;;;;;;;;;;4996798;28;20212;-67
2022/07/27 12:45:56;;;;;;;439.77;250.52;;;;;;;;;;5001855;28;20221;-68
2022/07/27 12:48:24;;;;;;;381.92;215.90;;;;;;;;;;5001597;28;20217;-67
2022/07/27 12:51:05;;;;;;;442.33;253.77;;;;;;;;;;5002427;28;20213;-67
2022/07/27 12:53:32;;;;;;;403.77;235.38;;;;;;;;;;4995986;28;20561;-66
2022/07/27 12:56:00;;;;;;;431.23;250.05;;;;;;;;;;4999331;28;21535;-67
2022/07/27 12:58:26;;;;;;;475.33;264.77;;;;;;;;;;5004753;28;20181;-68
2022/07/27 13:00:53;;;;;;;404.15;233.65;;;;;;;;;;5003330;28;20741;-68
2022/07/27 13:03:19;;;;;;;424.55;243.77;;;;;;;;;;4994588;28;20761;-68
2022/07/27 13:05:45;;;;;;;506.95;282.92;;;;;;;;;;4997314;28;20248;-68
2022/07/27 13:08:12;;;;;;;359.02;217.77;;;;;;;;;;5001291;28;20217;-67
2022/07/27 13:10:38;;;;;;;387.73;230.75;;;;;;;;;;4999235;28;20177;-67
2022/07/27 13:13:05;;;;;;;376.60;251.77;;;;;;;;;;5004642;28;20279;-68
2022/07/27 13:15:31;;;;;;;513.42;292.23;;;;;;;;;;4990161;28;20221;-69
2022/07/27 13:17:57;;;;;;;411.35;248.50;;;;;;;;;;5000190;28;20213;-69
2022/07/27 13:20:24;;;;;;;385.05;232.27;;;;;;;;;;5005689;28;20221;-69
2022/07/27 13:22:50;;;;;;;401.77;241.85;;;;;;;;;;5003780;28;20193;-67
2022/07/27 13:25:16;;;;;;;423.58;254.02;;;;;;;;;;4989548;28;20206;-68
2022/07/27 13:27:42;;;;;;;517.20;298.33;;;;;;;;;;4988886;28;20212;-68
2022/07/27 13:30:09;;;;;;;363.80;225.02;;;;;;;;;;4992175;28;20418;-67
2022/07/27 13:32:36;;;;;;;396.20;241.57;;;;;;;;;;5005951;28;20263;-67
2022/07/27 13:35:02;;;;;;;397.67;244.93;;;;;;;;;;5001907;28;20232;-67
2022/07/27 13:37:28;;;;;;;458.63;268.63;;;;;;;;;;5002147;28;20181;-67
2022/07/27 13:39:53;;;;;;;397.13;240.00;;;;;;;;;;5003872;28;20221;-68
2022/07/27 13:42:24;;;;;;;367.02;224.07;;;;;;;;;;5003951;28;20243;-67
2022/07/27 13:44:50;;;;;;;382.85;228.23;;;;;;;;;;5004906;28;20209;-67
2022/07/27 13:47:16;;;;;;;403.65;233.13;;;;;;;;;;5003289;28;20592;-68
2022/07/27 13:49:42;;;;;;;395.38;233.93;;;;;;;;;;4994341;28;20193;-67
2022/07/27 13:52:11;;;;;;;395.88;231.10;;;;;;;;;;5000147;28;20235;-67
2022/07/27 13:54:37;;;;;;;411.98;252.07;;;;;;;;;;5003317;28;20542;-66